Latest Weather Observations for St Helens

IDT60801

Issued at 10:02 am EST Sunday 25 September 2016 (issued every 30 minutes, with the page automatically refreshed every 10 minutes)

About weather observations | Map of weather stations | Latest weather observations for TAS | Other Formats
Station Details ID: 092120 Name: ST HELENS AERODROME Lat: -41.34 Lon: 148.28 Height: 48.0 m
Data from the previous 72 hours. | See also: Recent months at St Helens
Date/Time
EST
Temp
°C
App
Temp
°C
Dew
Point
°C
Rel
Hum
%
Delta-T
°C
Wind Press
QNH
hPa
Press
MSL
hPa
Rain since
9am
mm
Dir  Spd
km/h
Gust
km/h
Spd
kts
Gust
kts
25/10:00am 16.4 15.2 10.3 67 3.2 N 7 13 4 7 1002.6 - 0.0
25/09:30am 15.9 14.9 11.1 73 2.6 N 7 11 4 6 1002.8 - 0.0
25/09:00am 14.6 14.1 10.8 78 2.0 NNW 4 9 2 5 1002.7 1002.8 11.6
25/08:30am 13.2 12.3 11.3 88 1.0 N 7 11 4 6 1002.6 - 11.6
25/08:00am 12.3 12.1 11.8 97 0.3 NNE 4 9 2 5 1002.4 - 11.6
25/07:30am 11.4 11.4 11.1 98 0.2 ENE 2 7 1 4 1002.5 - 11.6
25/07:00am 10.4 10.5 10.2 99 0.1 CALM 0 0 0 0 1002.4 - 11.6
25/06:30am 9.5 9.3 9.2 98 0.1 CALM 0 6 0 3 1002.2 - 11.6
25/06:00am 9.3 8.7 9.0 98 0.1 NNE 2 7 1 4 1002.3 1002.4 11.6
25/05:30am 9.7 9.6 9.4 98 0.1 CALM 0 6 0 3 1002.1 - 11.6
25/05:00am 9.9 8.7 9.6 98 0.2 NNW 6 9 3 5 1002.1 - 11.6
25/04:30am 10.1 8.0 9.9 99 0.1 WNW 11 13 6 7 1001.8 - 11.6
25/04:00am 10.2 8.5 10.0 99 0.1 W 9 17 5 9 1002.1 - 11.6
25/03:30am 10.0 8.7 9.9 99 0.1 WNW 7 11 4 6 1002.3 - 11.6
25/03:01am 10.1 8.4 9.9 99 0.1 NW 9 13 5 7 1002.6 - 11.6
25/03:00am 10.0 8.3 9.9 99 0.1 NW 9 13 5 7 1002.6 1002.7 11.6
25/02:58am 10.1 8.4 9.9 99 0.1 NW 9 13 5 7 1002.7 - 11.6
25/02:40am 10.0 8.7 9.9 99 0.1 W 7 11 4 6 1002.8 - 11.6
25/02:30am 10.1 8.8 9.9 99 0.1 W 7 13 4 7 1003.0 - 11.6
25/02:11am 10.2 8.5 10.0 99 0.1 WNW 9 13 5 7 1003.1 - 11.6
25/02:00am 10.3 9.2 10.1 99 0.1 W 6 11 3 6 1003.3 - 11.6
25/01:50am 10.3 9.0 10.1 99 0.1 W 7 15 4 8 1003.5 - 11.6
25/01:30am 10.5 9.3 10.3 99 0.1 W 7 11 4 6 1003.6 - 11.6
25/01:00am 10.9 10.0 10.7 99 0.1 W 6 9 3 5 1003.8 - 11.6
25/12:40am 11.1 9.7 10.9 99 0.1 W 9 15 5 8 1004.0 - 11.6
25/12:30am 11.2 10.4 11.0 99 0.1 WSW 6 11 3 6 1004.1 - 11.6
25/12:25am 11.3 10.5 11.1 99 0.1 W 6 11 3 6 1004.1 - 11.6
25/12:17am 11.3 10.3 11.1 99 0.1 WNW 7 13 4 7 1004.1 - 11.6
25/12:13am 11.3 10.3 11.0 98 0.2 W 7 13 4 7 1004.1 - 11.6
25/12:00am 11.5 10.7 11.2 98 0.2 WNW 6 11 3 6 1004.4 1004.5 11.6
 
Date/Time
EST
Temp
°C
App
Temp
°C
Dew
Point
°C
Rel
Hum
%
Delta-T
°C
Wind Press
QNH
hPa
Press
MSL
hPa
Rain since
9am
mm
Dir  Spd
km/h
Gust
km/h
Spd
kts
Gust
kts
24/11:30pm 12.0 11.8 11.7 98 0.2 NNW 4 9 2 5 1004.7 - 11.6
24/11:20pm 12.1 11.5 11.8 98 0.2 N 6 9 3 5 1004.8 - 11.6
24/11:00pm 12.5 11.5 12.2 98 0.2 N 9 15 5 8 1005.0 - 11.6
24/10:30pm 12.8 12.3 12.5 98 0.2 N 7 9 4 5 1005.3 - 11.6
24/10:00pm 12.8 12.3 12.5 98 0.2 N 7 9 4 5 1005.6 - 11.6
24/09:30pm 12.9 13.3 12.6 98 0.2 W 2 7 1 4 1005.9 - 11.6
24/09:08pm 13.1 13.3 12.9 99 0.1 W 4 9 2 5 1006.2 - 11.6
24/09:06pm 13.1 12.9 12.9 99 0.1 WNW 6 11 3 6 1006.1 - 11.6
24/09:00pm 13.2 12.4 13.0 99 0.1 N 9 13 5 7 1006.2 1006.3 11.6
24/08:53pm 13.2 12.8 13.0 99 0.1 N 7 13 4 7 1006.2 - 11.6
24/08:52pm 13.2 12.8 13.0 99 0.1 N 7 13 4 7 1006.2 - 11.6
24/08:30pm 13.3 12.5 13.0 98 0.2 NNE 9 13 5 7 1006.3 - 11.4
24/08:00pm 13.4 11.9 13.1 98 0.2 NNE 13 17 7 9 1006.4 - 11.4
24/07:34pm 13.4 12.3 13.1 98 0.2 NNE 11 15 6 8 1006.4 - 11.4
24/07:30pm 13.3 12.2 13.0 98 0.2 NNE 11 13 6 7 1006.4 - 11.4
24/07:00pm 13.5 12.0 13.2 98 0.2 N 13 20 7 11 1006.7 - 8.8
24/06:51pm 13.4 12.3 13.1 98 0.2 N 11 17 6 9 1006.6 - 8.6
24/06:30pm 13.3 11.8 13.0 98 0.2 N 13 19 7 10 1006.4 - 8.4
24/06:00pm 13.4 11.9 13.1 98 0.2 N 13 20 7 11 1006.6 1006.7 8.4
24/05:33pm 13.5 10.8 13.0 97 0.3 NNE 19 26 10 14 1006.5 - 8.4
24/05:30pm 13.5 10.8 13.0 97 0.3 NNE 19 26 10 14 1006.5 - 8.4
24/05:28pm 13.5 10.8 13.0 97 0.3 NNE 19 26 10 14 1006.5 - 8.4
24/05:11pm 13.5 11.7 13.2 98 0.2 N 15 24 8 13 1006.5 - 8.4
24/05:00pm 13.5 11.7 13.2 98 0.2 NNE 15 22 8 12 1006.5 - 8.4
24/04:53pm 13.5 11.7 13.2 98 0.2 NNE 15 22 8 12 1006.6 - 8.4
24/04:35pm 13.6 11.7 13.1 97 0.3 N 15 20 8 11 1006.6 - 8.4
24/04:30pm 13.5 12.0 13.0 97 0.3 N 13 20 7 11 1006.6 - 8.4
24/04:06pm 13.9 11.2 13.0 94 0.5 NNE 19 30 10 16 1006.7 - 8.2
24/04:04pm 13.9 11.0 12.8 93 0.6 NNE 20 35 11 19 1006.6 - 8.2
24/04:00pm 14.1 11.2 12.8 92 0.7 NNE 20 35 11 19 1006.6 - 7.8
24/03:30pm 14.3 11.4 13.0 92 0.7 NNE 20 30 11 16 1006.9 - 7.8
24/03:00pm 14.2 11.7 13.4 95 0.4 NNE 19 28 10 15 1007.1 1007.2 7.8
24/02:46pm 14.2 11.5 13.6 96 0.3 NNE 20 28 11 15 1007.1 - 7.8
24/02:36pm 14.1 11.4 13.5 96 0.3 NNE 20 30 11 16 1007.2 - 7.8
24/02:34pm 14.1 11.6 13.5 96 0.3 NE 19 30 10 16 1007.3 - 7.8
24/02:30pm 14.0 11.5 13.4 96 0.3 NNE 19 30 10 16 1007.3 - 7.8
24/02:24pm 13.9 11.3 13.3 96 0.3 NE 19 26 10 14 1007.4 - 7.6
24/02:00pm 14.0 11.2 13.2 95 0.4 NNE 20 30 11 16 1007.7 - 6.8
24/01:43pm 14.0 12.2 13.4 96 0.3 NNE 15 28 8 15 1007.9 - 6.4
24/01:30pm 13.7 11.8 13.1 96 0.3 NNE 15 20 8 11 1008.2 - 6.2
24/01:00pm 14.1 13.3 13.0 93 0.6 NNE 9 15 5 8 1008.7 - 5.8
24/12:30pm 14.4 12.4 12.8 90 0.9 NNE 15 22 8 12 1009.1 - 5.6
24/12:00pm 14.4 14.3 13.8 96 0.3 N 7 15 4 8 1009.5 1009.5 5.6
24/11:30am 13.5 13.7 13.2 98 0.2 NE 4 9 2 5 1009.9 - 5.6
24/11:04am 12.7 12.3 12.4 98 0.2 NNE 6 11 3 6 1010.5 - 5.2
24/11:00am 12.5 11.9 12.2 98 0.2 N 7 11 4 6 1010.5 - 5.2
24/10:53am 12.2 11.4 11.7 97 0.3 N 7 11 4 6 1010.6 - 5.2
24/10:49am 12.3 11.5 11.8 97 0.3 N 7 9 4 5 1010.6 - 5.2
24/10:30am 12.3 10.7 11.7 96 0.3 NNE 11 20 6 11 1011.0 - 2.8
24/10:00am 12.7 12.5 11.9 95 0.4 NNE 4 9 2 5 1011.2 - 1.6
24/09:35am 12.8 13.3 11.7 93 0.6 CALM 0 7 0 4 1011.5 - 1.0
24/09:31am 12.7 12.4 11.4 92 0.7 NNE 4 7 2 4 1011.6 - 0.8
24/09:30am 12.7 12.4 11.4 92 0.7 NNE 4 7 2 4 1011.6 - 0.8
24/09:15am 12.6 12.9 11.0 90 0.8 CALM 0 0 0 0 1011.8 - 0.8
24/09:00am 12.6 12.8 10.7 88 1.0 CALM 0 0 0 0 1011.9 1011.9 0.0
24/08:30am 11.0 9.8 9.6 91 0.7 NW 6 13 3 7 1012.1 - 0.0
24/08:08am 10.5 10.3 9.1 91 0.7 CALM 0 7 0 4 1012.2 - 0.0
24/08:00am 10.6 9.1 9.2 91 0.7 WNW 7 9 4 5 1012.3 - 0.0
24/07:30am 10.3 9.0 9.2 93 0.5 WNW 6 11 3 6 1012.4 - 0.0
24/07:19am 9.8 8.4 8.9 94 0.4 WNW 6 9 3 5 1012.5 - 0.0
24/07:00am 9.4 7.7 8.5 94 0.4 NW 7 11 4 6 1012.6 - 0.0
24/06:30am 8.9 7.2 8.3 96 0.3 W 7 13 4 7 1012.5 - 0.0
24/06:00am 8.4 5.8 7.8 96 0.3 NW 11 15 6 8 1012.4 1012.4 0.0
24/05:52am 8.5 6.0 8.1 97 0.2 NW 11 15 6 8 1012.3 - 0.0
24/05:47am 8.5 5.9 7.9 96 0.3 NNW 11 13 6 7 1012.3 - 0.0
24/05:30am 8.2 6.6 7.8 97 0.2 WNW 6 11 3 6 1012.3 - 0.0
24/05:00am 8.4 5.5 8.0 97 0.2 NW 13 15 7 8 1012.5 - 0.0
24/04:30am 8.2 5.6 7.9 98 0.1 NW 11 13 6 7 1012.6 - 0.0
24/04:20am 8.2 6.4 7.9 98 0.1 NW 7 11 4 6 1012.6 - 0.0
24/04:00am 8.0 5.4 7.7 98 0.1 NW 11 13 6 7 1012.7 - 0.0
24/03:34am 7.9 5.7 7.8 99 0.0 WNW 9 15 5 8 1013.0 - 0.0
24/03:30am 7.9 6.3 7.8 99 0.0 WNW 6 13 3 7 1013.0 - 0.0
24/03:00am 8.0 5.0 7.9 99 0.0 NNW 13 15 7 8 1013.3 1013.3 0.0
24/02:54am 7.9 4.9 7.8 99 0.0 NNW 13 15 7 8 1013.3 - 0.0
24/02:38am 7.9 5.3 7.8 99 0.0 NNW 11 15 6 8 1013.4 - 0.0
24/02:30am 7.7 5.1 7.6 99 0.0 NNW 11 15 6 8 1013.6 - 0.0
24/02:00am 7.3 3.8 7.2 99 0.0 NNW 15 17 8 9 1013.8 - 0.0
24/01:41am 7.4 4.7 7.3 99 0.0 NW 11 15 6 8 1013.8 - 0.0
24/01:30am 7.9 5.3 7.8 99 0.0 NNW 11 15 6 8 1013.8 - 0.0
24/01:05am 7.6 5.7 7.5 99 0.0 W 7 9 4 5 1014.0 - 0.0
24/01:00am 7.6 5.7 7.5 99 0.0 WNW 7 11 4 6 1014.1 - 0.0
24/12:44am 7.8 5.5 7.5 98 0.1 N 9 11 5 6 1014.1 - 0.0
24/12:30am 8.0 5.8 7.9 99 0.0 NNW 9 9 5 5 1014.2 - 0.0
24/12:00am 7.9 6.0 7.6 98 0.1 NW 7 11 4 6 1014.6 1014.7 0.0
 
Date/Time
EST
Temp
°C
App
Temp
°C
Dew
Point
°C
Rel
Hum
%
Delta-T
°C
Wind Press
QNH
hPa
Press
MSL
hPa
Rain since
9am
mm
Dir  Spd
km/h
Gust
km/h
Spd
kts
Gust
kts
23/11:30pm 8.5 6.8 8.2 98 0.1 NNW 7 11 4 6 1014.6 - 0.0
23/11:00pm 8.7 6.6 8.4 98 0.1 NNW 9 11 5 6 1015.0 - 0.0
23/10:30pm 8.8 7.1 8.5 98 0.1 WNW 7 9 4 5 1015.2 - 0.0
23/10:00pm 9.1 7.5 8.6 97 0.2 NW 7 9 4 5 1015.2 - 0.0
23/09:30pm 9.5 8.0 9.0 97 0.2 NNW 7 9 4 5 1015.3 - 0.0
23/09:00pm 9.8 9.6 9.0 95 0.4 CALM 0 0 0 0 1015.3 1015.4 0.0
23/08:30pm 10.7 10.7 9.8 94 0.5 CALM 0 0 0 0 1015.4 - 0.0
23/08:00pm 10.6 10.5 9.5 93 0.6 CALM 0 6 0 3 1015.5 - 0.0
23/07:30pm 11.3 11.3 9.9 91 0.7 CALM 0 0 0 0 1015.4 - 0.0
23/07:00pm 11.5 11.6 10.1 91 0.7 CALM 0 0 0 0 1015.2 - 0.0
23/06:30pm 11.6 11.6 9.9 89 0.9 CALM 0 0 0 0 1015.1 - 0.0
23/06:00pm 12.1 12.2 10.2 88 1.0 CALM 0 0 0 0 1015.1 1015.2 0.0
23/05:30pm 12.4 11.3 10.0 85 1.2 SE 6 9 3 5 1015.0 - 0.0
23/05:00pm 13.3 11.7 10.1 81 1.7 E 9 17 5 9 1014.9 - 0.0
23/04:30pm 14.0 12.3 9.8 76 2.2 E 9 11 5 6 1014.9 - 0.0
23/04:00pm 14.6 12.4 9.4 71 2.7 E 11 17 6 9 1014.8 - 0.0
23/03:30pm 14.9 12.3 9.3 69 2.9 E 13 19 7 10 1014.8 - 0.0
23/03:00pm 14.8 12.6 9.2 69 2.9 E 11 17 6 9 1015.0 1015.1 0.0
23/02:30pm 15.0 12.6 8.7 66 3.2 ESE 11 15 6 8 1015.2 - 0.0
23/02:00pm 15.2 12.3 8.0 62 3.6 E 13 24 7 13 1015.4 - 0.0
23/01:30pm 15.2 12.3 8.0 62 3.6 E 13 26 7 14 1015.6 - 0.0
23/01:00pm 15.0 11.8 6.8 58 4.0 E 13 20 7 11 1015.9 - 0.0
23/12:30pm 15.2 12.6 7.7 61 3.7 ESE 11 20 6 11 1016.1 - 0.0
23/12:00pm 15.6 13.6 8.6 63 3.6 SSE 9 19 5 10 1016.4 1016.5 0.0
23/11:30am 15.1 12.2 8.3 64 3.4 SSE 13 20 7 11 1016.7 - 0.0
23/11:00am 14.3 11.1 8.5 68 2.9 SSE 15 20 8 11 1017.0 - 0.0
23/10:30am 13.8 10.5 8.0 68 2.9 S 15 24 8 13 1017.3 - 0.0
23/10:00am 13.9 10.6 7.9 67 3.0 S 15 26 8 14 1017.5 - 0.0
23/09:30am 13.8 10.4 7.8 67 3.0 SSE 15 24 8 13 1017.6 - 0.0
23/09:00am 13.4 10.8 7.6 68 2.8 SSE 11 17 6 9 1017.7 1017.8 0.2
23/08:30am 11.6 11.6 9.7 88 1.0 CALM 0 7 0 4 1017.8 - 0.2
23/08:00am 9.1 7.4 8.2 94 0.4 NNW 7 9 4 5 1017.7 - 0.2
23/07:30am 7.4 5.0 7.1 98 0.1 NW 9 15 5 8 1017.6 - 0.2
23/07:00am 6.2 3.6 6.1 99 0.0 NNW 9 11 5 6 1017.4 - 0.2
23/06:30am 5.5 2.8 5.4 99 0.0 NNW 9 11 5 6 1017.3 - 0.2
23/06:00am 5.1 3.2 5.0 99 0.0 WNW 4 7 2 4 1017.0 1017.1 0.2
23/05:30am 5.5 3.1 5.4 99 0.0 NNW 7 9 4 5 1016.7 - 0.2
23/05:00am 5.6 4.6 5.5 99 0.0 CALM 0 0 0 0 1016.6 - 0.2
23/04:30am 5.7 3.9 5.6 99 0.0 NNW 4 9 2 5 1016.3 - 0.2
23/04:00am 5.8 3.5 5.7 99 0.0 NNW 7 9 4 5 1016.2 - 0.0
23/03:30am 5.9 3.2 5.8 99 0.0 NNW 9 9 5 5 1016.2 - 0.0
23/03:00am 6.2 4.0 6.1 99 0.0 NNW 7 9 4 5 1016.1 1016.2 0.0
23/02:30am 6.0 3.9 5.7 98 0.1 WNW 6 7 3 4 1016.1 - 0.0
23/02:00am 6.6 5.0 6.3 98 0.1 WNW 4 9 2 5 1016.3 - 0.0
23/01:30am 6.6 4.4 6.3 98 0.1 NW 7 9 4 5 1016.5 - 0.0
23/01:00am 6.9 5.7 6.6 98 0.1 NW 2 9 1 5 1016.7 - 0.0
23/12:30am 6.9 4.8 6.6 98 0.1 NNW 7 9 4 5 1016.8 - 0.0
23/12:00am 7.3 5.3 7.0 98 0.1 WNW 7 11 4 6 1016.7 1016.8 0.0
 
Date/Time
EST
Temp
°C
App
Temp
°C
Dew
Point
°C
Rel
Hum
%
Delta-T
°C
Wind Press
QNH
hPa
Press
MSL
hPa
Rain since
9am
mm
Dir  Spd
km/h
Gust
km/h
Spd
kts
Gust
kts
22/11:30pm 7.4 5.4 7.0 97 0.2 NW 7 9 4 5 1016.9 - 0.0
22/11:00pm 7.5 5.1 7.2 98 0.1 NNW 9 11 5 6 1016.9 - 0.0
22/10:30pm 8.0 6.1 7.6 97 0.2 NNW 7 13 4 7 1016.9 - 0.0
22/10:00pm 8.2 6.9 7.6 96 0.3 NW 4 9 2 5 1016.9 - 0.0
22/09:30pm 9.0 7.8 8.2 95 0.4 WNW 4 7 2 4 1016.9 - 0.0
22/09:00pm 9.3 8.5 8.2 93 0.5 NNW 2 7 1 4 1016.6 1016.7 0.0
22/08:30pm 10.2 9.5 8.6 90 0.8 WSW 2 6 1 3 1016.6 - 0.0
22/08:00pm 10.5 9.6 9.3 92 0.6 S 4 9 2 5 1016.5 - 0.0
22/07:30pm 11.0 9.7 9.8 92 0.6 S 7 15 4 8 1016.3 - 0.0
22/07:00pm 11.2 9.9 9.8 91 0.7 S 7 15 4 8 1016.0 - 0.0
22/06:30pm 11.8 10.1 10.0 89 0.9 S 9 17 5 9 1015.6 - 0.0
22/06:00pm 12.4 9.6 10.0 85 1.2 SSE 15 24 8 13 1015.3 1015.4 0.0
22/05:30pm 12.8 10.4 10.2 84 1.3 S 13 24 7 13 1015.2 - 0.0
22/05:00pm 13.2 10.2 10.6 84 1.4 S 17 32 9 17 1014.9 - 0.0
22/04:30pm 13.6 10.1 10.8 83 1.5 S 20 32 11 17 1014.5 - 0.0
22/04:00pm 13.7 10.2 10.3 80 1.8 SSE 19 30 10 16 1014.3 - 0.0
22/03:30pm 14.2 10.6 10.6 79 1.9 SSE 20 33 11 18 1014.2 - 0.0
22/03:00pm 14.4 11.2 11.2 81 1.7 S 19 35 10 19 1014.1 1014.1 0.0
22/02:30pm 14.3 11.5 11.3 82 1.6 S 17 30 9 16 1014.0 - 0.0
22/02:00pm 13.8 10.4 11.3 85 1.3 S 20 35 11 19 1014.0 - 0.0
22/01:30pm 14.2 10.9 11.0 81 1.7 SSE 19 30 10 16 1014.0 - 0.0
22/01:00pm 14.2 10.9 10.8 80 1.8 SSE 19 33 10 18 1014.1 - 0.0
22/12:30pm 14.2 10.2 10.6 79 1.9 SSE 22 35 12 19 1014.1 - 0.0
22/12:00pm 14.5 11.1 10.5 77 2.1 S 19 33 10 18 1014.2 1014.2 0.0
22/11:30am 14.5 11.1 11.3 81 1.7 SSE 20 32 11 17 1014.1 - 0.0
22/11:00am 14.6 10.4 11.2 80 1.8 S 24 41 13 22 1014.0 - 0.0
22/10:30am 14.7 11.5 11.1 79 1.9 S 19 28 10 15 1013.9 - 0.0

Other Formats:

Comma delimited format used in spreadsheet applications
http://www.bom.gov.au/fwo/IDT60801/IDT60801.95981.axf

JavaScript Object Notation format (JSON) in row-major order
http://www.bom.gov.au/fwo/IDT60801/IDT60801.95981.json